createdAt,value
2016-07-25T17:20:05.619Z,47.37
2016-07-25T17:21:04.674Z,46.5
2016-07-25T17:22:04.694Z,45.91
2016-07-25T17:23:05.652Z,46.3
2016-07-25T17:24:04.724Z,46.77
2016-07-25T17:25:04.741Z,46.88
2016-07-25T17:26:04.774Z,46.59
2016-07-25T17:27:04.771Z,46.69
2016-07-25T17:28:04.785Z,47.25
2016-07-25T17:29:04.799Z,46.98
2016-07-25T17:30:04.812Z,46.28
2016-07-25T17:31:05.567Z,46.57
2016-07-25T17:32:04.857Z,46.37
2016-07-25T17:33:05.588Z,47.05
2016-07-25T17:34:04.873Z,46.47
2016-07-25T17:35:05.626Z,47.44
2016-07-25T17:36:04.912Z,47.44
2016-07-25T17:37:04.918Z,47.64
2016-07-25T17:38:04.936Z,47.05
2016-07-25T17:39:05.150Z,46.77
2016-07-25T17:40:05.170Z,46.77
2016-07-25T17:41:04.978Z,46.86
2016-07-25T17:42:05.200Z,46.86
2016-07-25T17:43:05.007Z,47.25
2016-07-25T17:44:05.023Z,46.57
2016-07-25T17:45:05.268Z,46.47
2016-07-25T17:46:05.069Z,47.25
2016-07-25T17:47:05.793Z,47.83
2016-07-25T17:48:05.385Z,47.34
2016-07-25T17:49:05.099Z,48
2016-07-25T17:50:06.042Z,47.71
2016-07-25T17:51:05.127Z,47.64
2016-07-25T17:52:05.143Z,47.64
2016-07-25T17:53:05.154Z,47.81
2016-07-25T17:54:05.174Z,47.91
2016-07-25T17:55:05.188Z,47.91
2016-07-25T17:56:05.198Z,48
2016-07-25T17:57:05.216Z,48.49
2016-07-25T17:58:05.240Z,48.3
2016-07-25T17:59:05.988Z,48.68
2016-07-25T18:00:05.264Z,48.85
2016-07-25T18:01:05.276Z,49.37
2016-07-25T18:02:05.309Z,49.63
2016-07-25T18:03:05.308Z,49.73
2016-07-25T18:04:05.548Z,49.63
2016-07-25T18:05:05.333Z,49.82
2016-07-25T18:06:05.353Z,50.02
2016-07-25T18:07:05.366Z,50.8
2016-07-25T18:08:05.377Z,50.8
2016-07-25T18:09:05.393Z,51.75
2016-07-25T18:10:05.411Z,51.65
2016-07-25T18:11:05.421Z,51.57
2016-07-25T18:12:05.643Z,51.65
2016-07-25T18:13:05.461Z,51.65
2016-07-25T18:14:06.201Z,51.65
2016-07-25T18:15:05.632Z,51.55
2016-07-25T18:16:06.425Z,51.65
2016-07-25T18:17:05.872Z,51.45
2016-07-25T18:18:05.518Z,51.93
2016-07-25T18:19:05.535Z,52.3
2016-07-25T18:20:05.755Z,52.01
2016-07-25T18:21:05.565Z,51.84
2016-07-25T18:22:05.576Z,52.3
2016-07-25T18:23:05.595Z,52.4
2016-07-25T18:24:05.605Z,52.11
2016-07-25T18:25:05.620Z,52.5
2016-07-25T18:26:05.648Z,52.5
2016-07-25T18:27:05.655Z,52.69
2016-07-25T18:28:05.686Z,52.88
2016-07-25T18:29:05.683Z,53.24
2016-07-25T18:30:05.699Z,52.98
2016-07-25T18:31:05.750Z,53.34
2016-07-25T18:32:05.720Z,53.05
2016-07-25T18:33:05.745Z,53.24
2016-07-25T18:34:05.752Z,52.76
2016-07-25T18:35:05.764Z,52.86
2016-07-25T18:36:05.773Z,53.24
2016-07-25T18:37:05.809Z,53.53
2016-07-25T18:38:05.805Z,53.44
2016-07-25T18:39:05.816Z,54.02
2016-07-25T18:40:05.837Z,54.11
2016-07-25T18:41:05.869Z,54.21
2016-07-25T18:42:05.861Z,54.31
2016-07-25T18:43:06.075Z,54.38
2016-07-25T18:44:05.898Z,54.86
2016-07-25T18:45:06.631Z,55.16
2016-07-25T18:46:06.645Z,55.83
2016-07-25T18:47:06.654Z,55.74
2016-07-25T18:48:05.945Z,56.13
2016-07-25T18:49:21.228Z,56.32
2016-07-25T18:50:05.968Z,56.41
2016-07-25T18:51:06.767Z,56.9
2016-07-25T18:52:05.996Z,57.19
2016-07-25T18:53:06.005Z,57.17
2016-07-25T18:54:07.039Z,57.07
2016-07-25T18:55:06.136Z,57.29
2016-07-25T18:56:06.779Z,57.84
2016-07-25T18:57:06.068Z,57.48
2016-07-25T18:58:06.075Z,58.04
2016-07-25T18:59:06.092Z,58.33
2016-07-25T19:00:06.104Z,58.81
2016-07-25T19:01:06.126Z,58.81
2016-07-25T19:02:06.137Z,59
2016-07-25T19:03:06.255Z,59.2
2016-07-25T19:04:06.895Z,59.49
2016-07-25T19:05:06.375Z,60.27
2016-07-25T19:06:06.927Z,59.88
2016-07-25T19:07:06.201Z,59.69
2016-07-25T19:08:06.974Z,60.55
2016-07-25T19:09:21.318Z,60.33
2016-07-25T19:10:07.986Z,60.91
2016-07-25T19:11:06.251Z,61.11
2016-07-25T19:13:07.388Z,60.62
2016-07-25T19:14:06.306Z,61.21
2016-07-25T19:15:06.305Z,60.82
2016-07-25T19:16:07.255Z,61.4
2016-07-25T19:18:07.529Z,61.01
2016-07-25T19:19:06.362Z,61.21
2016-07-25T19:20:06.372Z,61.11
2016-07-25T19:21:06.383Z,61.21
2016-07-25T19:22:06.398Z,61.21
2016-07-25T19:23:06.410Z,61.27
2016-07-25T19:24:06.423Z,61.18
2016-07-25T19:25:06.447Z,61.18
2016-07-25T19:26:07.206Z,61.56
2016-07-25T19:27:06.672Z,62.04
2016-07-25T19:28:06.475Z,62.43
2016-07-25T19:29:06.487Z,62.24
2016-07-25T19:30:07.286Z,62.72
2016-07-25T19:31:06.521Z,62.43
2016-07-25T19:32:07.248Z,62.63
2016-07-25T19:33:06.537Z,62.34
2016-07-25T19:34:07.500Z,62.34
2016-07-25T19:35:07.302Z,62.34
2016-07-25T19:36:06.593Z,62.53
2016-07-25T19:37:07.315Z,62.53
2016-07-25T19:38:07.915Z,63.11
2016-07-25T19:39:06.620Z,62.72
2016-07-25T19:40:07.708Z,63.01
2016-07-25T19:41:07.406Z,63.31
2016-07-25T19:42:06.665Z,63.21
2016-07-25T19:43:06.666Z,63.4
2016-07-25T19:44:06.941Z,63.21
2016-07-25T19:45:06.951Z,63.18
2016-07-25T19:46:06.794Z,63.59
2016-07-25T19:47:06.743Z,63.49
2016-07-25T19:48:06.934Z,63.95
2016-07-25T19:49:06.755Z,64.04
2016-07-25T19:50:06.865Z,63.95
2016-07-25T19:51:06.773Z,63.85
2016-07-25T19:52:06.782Z,63.76
2016-07-25T19:53:07.543Z,63.85
2016-07-25T19:54:07.770Z,63.85
2016-07-25T19:55:06.873Z,63.66
2016-07-25T19:56:07.142Z,63.95
2016-07-25T19:57:06.847Z,64.14
2016-07-25T19:58:07.180Z,64.24
2016-07-25T19:59:06.943Z,64.53
2016-07-25T20:00:07.634Z,64.24
2016-07-25T20:01:06.894Z,64.14
2016-07-25T20:02:06.919Z,64.62
2016-07-25T20:03:06.962Z,64.89
2016-07-25T20:04:06.982Z,64.92
2016-07-25T20:05:06.942Z,64.69
2016-07-25T20:06:06.979Z,64.79
2016-07-25T20:07:07.011Z,64.79
2016-07-25T20:08:07.204Z,64.89
2016-07-25T20:09:06.995Z,64.69
2016-07-25T20:10:07.209Z,64.59
2016-07-25T20:11:07.743Z,64.89
2016-07-25T20:12:08.014Z,64.79
2016-07-25T20:13:07.059Z,64.98
2016-07-25T20:14:07.064Z,65.37
2016-07-25T20:15:07.065Z,65.47
2016-07-25T20:16:07.083Z,65.34
2016-07-25T20:17:08.226Z,65.34
2016-07-25T20:18:07.169Z,65.56
2016-07-25T20:19:07.118Z,65.43
2016-07-25T20:20:07.126Z,65.95
2016-07-25T20:21:07.401Z,65.53
2016-07-25T20:22:07.901Z,65.53
2016-07-25T20:23:07.221Z,66.01
2016-07-25T20:24:07.179Z,65.92
2016-07-25T20:25:07.268Z,66.01
2016-07-25T20:26:07.203Z,65.92
2016-07-25T20:27:07.230Z,66.2
2016-07-25T20:28:07.239Z,65.92
2016-07-25T20:29:07.244Z,65.63
2016-07-25T20:30:07.251Z,66.4
2016-07-25T20:31:07.265Z,66.11
2016-07-25T20:33:08.022Z,66.69
2016-07-25T20:34:07.302Z,66.59
2016-07-25T20:35:07.312Z,67.08
2016-07-25T20:36:07.329Z,67.04
2016-07-25T20:37:07.340Z,67.04
2016-07-25T20:38:07.349Z,67.14
2016-07-25T20:39:08.091Z,67.04
2016-07-25T20:40:07.372Z,67.14
2016-07-25T20:41:07.394Z,67.14
2016-07-25T20:42:07.394Z,67.04
2016-07-25T20:43:07.408Z,67.04
2016-07-25T20:44:07.418Z,66.85
2016-07-25T20:45:07.433Z,67.04
2016-07-25T20:46:07.444Z,66.94
2016-07-25T20:47:07.454Z,67.33
2016-07-25T20:48:07.466Z,67.52
2016-07-25T20:49:07.491Z,67.11
2016-07-25T20:50:07.498Z,67.11
2016-07-25T20:51:07.497Z,67.33
2016-07-25T20:52:07.515Z,67.72
2016-07-25T20:53:08.252Z,67.49
2016-07-25T20:54:08.266Z,67.52
2016-07-25T20:55:07.603Z,67.78
2016-07-25T20:56:07.563Z,67.88
2016-07-25T20:57:07.681Z,68.17
2016-07-25T20:58:07.583Z,68.36
2016-07-25T20:59:07.798Z,68.17
2016-07-25T21:00:07.814Z,68.26
2016-07-25T21:01:07.641Z,68.75
2016-07-25T21:02:07.833Z,68.26
2016-07-25T21:03:07.644Z,68.75
2016-07-25T21:04:07.659Z,68.55
2016-07-25T21:05:07.665Z,68.75
2016-07-25T21:06:07.890Z,68.75
2016-07-25T21:07:07.705Z,69
2016-07-25T21:08:07.702Z,69.1
2016-07-25T21:09:07.709Z,69
2016-07-25T21:10:07.748Z,69.13
2016-07-25T21:11:07.742Z,69.29
2016-07-25T21:12:07.760Z,69.58
2016-07-25T21:13:07.770Z,69.29
2016-07-25T21:14:07.791Z,69.2
2016-07-25T21:15:07.785Z,69.29
2016-07-25T21:16:07.788Z,69.29
2016-07-25T21:17:08.011Z,69.1
2016-07-25T21:18:08.076Z,68.81
2016-07-25T21:19:07.825Z,69.2
2016-07-25T21:20:07.851Z,69.39
2016-07-25T21:21:08.074Z,69.2
2016-07-25T21:22:07.855Z,69
2016-07-25T21:23:08.083Z,69.78
2016-07-25T21:24:08.088Z,69.58
2016-07-25T21:25:07.892Z,69.87
2016-07-25T21:26:07.903Z,69.87
2016-07-25T21:28:07.925Z,69.58
2016-07-25T21:29:08.141Z,69.58
2016-07-25T21:30:08.700Z,69.78
2016-07-25T21:31:08.160Z,69.39
2016-07-25T21:32:08.716Z,69.29
2016-07-25T21:34:08.194Z,69.39
2016-07-25T21:35:08.002Z,69.39
2016-07-25T21:36:08.016Z,69.58
2016-07-25T21:37:08.032Z,69.87
2016-07-25T21:38:08.047Z,69.87
2016-07-25T21:39:08.785Z,69.68
2016-07-25T21:40:08.285Z,69.87
2016-07-25T21:41:08.280Z,69.87
2016-07-25T21:42:08.153Z,69.68
2016-07-25T21:43:08.093Z,69.87
2016-07-25T21:44:08.107Z,69.87
2016-07-25T21:45:08.121Z,69.58
2016-07-25T21:46:08.329Z,70.16
2016-07-25T21:47:08.142Z,70.36
2016-07-25T21:48:08.351Z,69.74
2016-07-25T21:49:08.179Z,69.87
2016-07-25T21:50:08.167Z,69.45
2016-07-25T21:51:08.206Z,69.64
2016-07-25T21:52:08.190Z,69.93
2016-07-25T21:53:08.979Z,69.93
2016-07-25T21:54:08.431Z,70.32
2016-07-25T21:55:08.425Z,70.22
2016-07-25T21:56:08.245Z,70.32
2016-07-25T21:57:08.244Z,70.51
2016-07-25T21:58:08.264Z,70.03
2016-07-25T22:00:08.308Z,70.7
2016-07-25T22:01:08.295Z,70.51
2016-07-25T22:02:08.311Z,70.61
2016-07-25T22:03:08.311Z,70.03
2016-07-25T22:04:08.331Z,70.61
2016-07-25T22:05:08.339Z,70.51
2016-07-25T22:06:09.040Z,70.51
2016-07-25T22:07:09.090Z,70.51
2016-07-25T22:08:08.371Z,70.9
2016-07-25T22:09:09.113Z,70.61
2016-07-25T22:10:08.391Z,70.51
2016-07-25T22:11:08.400Z,70.42
2016-07-25T22:12:09.140Z,70.51
2016-07-25T22:13:08.423Z,70.61
2016-07-25T22:14:09.175Z,70.61
2016-07-25T22:15:08.854Z,70.22
2016-07-25T22:16:08.451Z,70.22
2016-07-25T22:17:08.470Z,70.32
2016-07-25T22:18:08.678Z,70.22
2016-07-25T22:19:08.490Z,70.03
2016-07-25T22:20:08.496Z,69.84
2016-07-25T22:21:08.508Z,70.7
2016-07-25T22:22:08.521Z,70.09
2016-07-25T22:24:08.539Z,70.38
2016-07-25T22:25:08.549Z,70.76
2016-07-25T22:26:08.559Z,70.61
2016-07-25T22:27:08.572Z,70.67
2016-07-25T22:28:08.583Z,70.22
2016-07-25T22:29:08.607Z,70.48
2016-07-25T22:30:08.603Z,70.48
2016-07-25T22:31:08.615Z,70.28
2016-07-25T22:33:08.637Z,70.38
2016-07-25T22:34:08.649Z,70.48
2016-07-25T22:35:09.403Z,70.48
2016-07-25T22:36:09.627Z,70.67
2016-07-25T22:37:08.683Z,70.57
2016-07-25T22:38:08.691Z,70.19
2016-07-25T22:39:08.909Z,70.38
2016-07-25T22:40:08.713Z,70.38
2016-07-25T22:41:08.937Z,70.57
2016-07-25T22:42:08.737Z,70.67
2016-07-25T22:43:08.760Z,70.48
2016-07-25T22:44:08.757Z,70
2016-07-25T22:45:08.767Z,70.57
2016-07-25T22:46:08.782Z,70.38
2016-07-25T22:47:08.791Z,70.19
2016-07-25T22:48:08.997Z,70.48
2016-07-25T22:49:08.807Z,70.38
2016-07-25T22:50:08.818Z,70
2016-07-25T22:51:09.772Z,70
2016-07-25T22:52:09.046Z,70.57
2016-07-25T22:53:08.855Z,70.38
2016-07-25T22:54:08.865Z,70.38
2016-07-25T22:55:08.888Z,70.67
2016-07-25T22:56:09.222Z,70.38
2016-07-25T22:57:09.287Z,70.57
2016-07-25T22:58:08.906Z,70.57
2016-07-25T22:59:08.920Z,70
2016-07-25T23:00:09.130Z,70.48
2016-07-25T23:01:09.148Z,70.76
2016-07-25T23:02:09.900Z,70.28
2016-07-25T23:03:09.004Z,70.96
2016-07-25T23:04:09.739Z,70.67
2016-07-25T23:05:09.733Z,70.48
2016-07-25T23:06:08.998Z,70.86
2016-07-25T23:07:09.001Z,71.15
2016-07-25T23:08:09.012Z,71.15
2016-07-25T23:09:23.893Z,70.96
2016-07-25T23:10:09.034Z,70.86
2016-07-25T23:11:09.047Z,70.86
2016-07-25T23:12:09.054Z,71.5
2016-07-25T23:14:09.076Z,71.5
2016-07-25T23:15:09.088Z,71.6
2016-07-25T23:16:09.099Z,71.22
2016-07-25T23:17:09.836Z,71.89
2016-07-25T23:18:09.170Z,72.08
2016-07-25T23:19:09.132Z,71.79
2016-07-25T23:20:09.872Z,71.89
2016-07-25T23:21:09.156Z,71.98
2016-07-25T23:22:09.188Z,72.18
2016-07-25T23:23:09.268Z,72.08
2016-07-25T23:24:09.183Z,71.98
2016-07-25T23:25:09.194Z,71.7
2016-07-25T23:26:10.193Z,71.89
2016-07-25T23:27:09.318Z,71.89
2016-07-25T23:28:09.377Z,71.98
2016-07-25T23:29:09.318Z,71.89
2016-07-25T23:30:09.363Z,71.89
2016-07-25T23:31:09.256Z,72.08
2016-07-25T23:32:09.265Z,72.18
2016-07-25T23:33:09.276Z,72.08
2016-07-25T23:34:10.029Z,71.98
2016-07-25T23:35:09.323Z,72.18
2016-07-25T23:36:10.035Z,72.08
2016-07-25T23:37:09.316Z,71.98
2016-07-25T23:38:09.325Z,71.89
2016-07-25T23:39:09.347Z,71.5
2016-07-25T23:40:09.347Z,71.7
2016-07-25T23:41:09.359Z,71.89
2016-07-25T23:42:10.118Z,72.18
2016-07-25T23:43:09.391Z,72.08
2016-07-25T23:44:09.389Z,72.08
2016-07-25T23:45:09.403Z,71.41
2016-07-25T23:46:09.408Z,71.7
2016-07-25T23:47:09.419Z,71.7
2016-07-25T23:48:09.429Z,71.5
2016-07-25T23:49:09.447Z,71.41
2016-07-25T23:50:09.451Z,71.5
2016-07-25T23:51:09.463Z,71.5
2016-07-25T23:52:09.471Z,71.5
2016-07-25T23:53:09.487Z,71.5
2016-07-25T23:54:09.695Z,71.7
2016-07-25T23:55:09.552Z,71.12
2016-07-25T23:56:09.509Z,71.5
2016-07-25T23:57:10.413Z,71.98
2016-07-25T23:58:09.541Z,72.95
2016-07-25T23:59:09.554Z,72.66
